createdAt,value
2019-04-14T00:02:33.902Z,1.10
2019-04-14T00:05:06.110Z,0.90
2019-04-14T00:07:40.501Z,0.80
2019-04-14T00:10:15.020Z,0.80
2019-04-14T00:12:47.036Z,0.70
2019-04-14T00:15:27.556Z,0.70
2019-04-14T00:17:50.346Z,0.60
2019-04-14T00:20:24.778Z,0.60
2019-04-14T00:22:55.532Z,0.60
2019-04-14T00:25:26.209Z,0.50
2019-04-14T00:27:56.556Z,0.50
2019-04-14T00:30:27.317Z,0.40
2019-04-14T00:33:01.802Z,0.40
2019-04-14T00:35:51.605Z,0.40
2019-04-14T00:38:43.524Z,0.30
2019-04-14T00:41:41.651Z,0.30
2019-04-14T00:44:08.001Z,0.30
2019-04-14T00:46:47.391Z,0.20
2019-04-14T00:49:17.975Z,0.20
2019-04-14T00:51:48.504Z,0.20
2019-04-14T00:54:19.615Z,0.20
2019-04-14T00:56:49.899Z,0.20
2019-04-14T00:59:20.142Z,0.20
2019-04-14T01:01:52.703Z,0.10
2019-04-14T01:04:23.015Z,0.10
2019-04-14T01:06:53.374Z,0.00
2019-04-14T01:09:24.007Z,-0.10
2019-04-14T01:11:55.302Z,-0.10
2019-04-14T01:14:25.847Z,-0.20
2019-04-14T01:16:56.005Z,-0.20
2019-04-14T01:19:26.643Z,-0.20
2019-04-14T01:21:56.885Z,-0.20
2019-04-14T01:24:29.201Z,-0.20
2019-04-14T01:26:59.585Z,-0.20
2019-04-14T01:29:29.841Z,-0.30
2019-04-14T01:32:00.171Z,-0.30
2019-04-14T01:34:30.271Z,-0.20
2019-04-14T01:37:00.816Z,-0.20
2019-04-14T01:39:31.065Z,-0.30
2019-04-14T01:42:01.241Z,-0.20
2019-04-14T01:44:31.499Z,-0.20
2019-04-14T01:47:03.017Z,-0.20
2019-04-14T01:49:33.433Z,-0.10
2019-04-14T01:52:21.250Z,-0.20
2019-04-14T01:55:09.327Z,-0.20
2019-04-14T01:57:52.555Z,-0.30
2019-04-14T02:00:44.933Z,-0.40
2019-04-14T02:03:15.139Z,-0.40
2019-04-14T02:05:45.347Z,-0.40
2019-04-14T02:08:15.852Z,-0.30
2019-04-14T02:10:46.044Z,-0.30
2019-04-14T02:13:16.137Z,-0.30
2019-04-14T02:15:46.571Z,-0.30
2019-04-14T02:18:16.769Z,-0.30
2019-04-14T02:20:46.932Z,-0.30
2019-04-14T02:23:17.538Z,-0.40
2019-04-14T02:25:47.705Z,-0.40
2019-04-14T02:28:17.852Z,-0.40
2019-04-14T02:30:56.830Z,-0.40
2019-04-14T02:33:44.733Z,-0.40
2019-04-14T02:36:21.892Z,-0.40
2019-04-14T02:39:01.879Z,-0.40
2019-04-14T02:41:29.972Z,-0.40
2019-04-14T02:44:01.841Z,-0.40
2019-04-14T02:46:34.460Z,-0.50
2019-04-14T02:48:55.354Z,-0.50
2019-04-14T02:51:27.271Z,-0.60
2019-04-14T03:01:42.273Z,-0.70
2019-04-14T03:04:09.459Z,-0.70
2019-04-14T03:06:41.639Z,-0.80
2019-04-14T03:11:48.952Z,-0.80
2019-04-14T03:14:21.509Z,-0.90
2019-04-14T03:22:50.967Z,-0.90
2019-04-14T03:25:22.534Z,-0.90
2019-04-14T03:28:28.354Z,-0.90
2019-04-14T03:36:44.689Z,-1.00
2019-04-14T03:41:31.544Z,-1.20
2019-04-14T03:43:41.540Z,-1.20
2019-04-14T03:51:28.400Z,-1.10
2019-04-14T03:53:53.421Z,-1.10
2019-04-14T03:56:39.968Z,-1.00
2019-04-14T03:59:10.642Z,-1.00
2019-04-14T04:01:41.340Z,-1.00
2019-04-14T04:04:11.874Z,-1.00
2019-04-14T04:06:42.307Z,-1.10
2019-04-14T04:09:12.655Z,-1.10
2019-04-14T04:11:43.403Z,-1.20
2019-04-14T04:14:13.928Z,-1.20
2019-04-14T04:17:10.168Z,-1.10
2019-04-14T04:20:15.174Z,-1.10
2019-04-14T04:23:10.237Z,-1.00
2019-04-14T04:25:59.508Z,-1.00
2019-04-14T04:28:47.160Z,-0.80
2019-04-14T04:31:48.423Z,-0.70
2019-04-14T04:34:38.028Z,-0.40
2019-04-14T04:37:26.233Z,-0.20
2019-04-14T04:39:58.174Z,-0.10
2019-04-14T04:42:28.730Z,-0.10
2019-04-14T04:44:59.594Z,0.00
2019-04-14T04:47:29.702Z,0.10
2019-04-14T04:50:00.024Z,0.20
2019-04-14T04:52:32.260Z,0.10
2019-04-14T04:55:02.786Z,0.20
2019-04-14T04:57:32.887Z,0.20
2019-04-14T05:00:03.113Z,0.30
2019-04-14T05:02:33.264Z,0.30
2019-04-14T05:05:03.588Z,0.40
2019-04-14T05:07:33.831Z,0.40
2019-04-14T05:10:21.857Z,0.50
2019-04-14T05:13:05.234Z,0.60
2019-04-14T05:15:53.177Z,0.60
2019-04-14T05:18:24.892Z,0.70
2019-04-14T05:20:55.422Z,0.70
2019-04-14T05:23:25.947Z,0.80
2019-04-14T05:25:56.230Z,0.90
2019-04-14T05:28:26.750Z,0.90
2019-04-14T05:30:57.059Z,1.00
2019-04-14T05:33:29.335Z,1.00
2019-04-14T05:35:59.914Z,1.10
2019-04-14T05:38:32.698Z,1.20
2019-04-14T05:41:02.992Z,1.20
2019-04-14T05:43:42.676Z,1.20
2019-04-14T05:46:05.560Z,1.30
2019-04-14T05:48:36.021Z,1.30
2019-04-14T05:51:06.622Z,1.30
2019-04-14T05:53:37.245Z,1.30
2019-04-14T05:56:07.906Z,1.40
2019-04-14T05:58:38.347Z,1.50
2019-04-14T06:01:09.291Z,1.60
2019-04-14T06:03:40.684Z,1.70
2019-04-14T06:06:10.923Z,1.80
2019-04-14T06:08:41.142Z,1.90
2019-04-14T06:11:11.325Z,2.20
2019-04-14T06:13:41.571Z,2.30
2019-04-14T06:16:11.732Z,2.50
2019-04-14T06:18:42.017Z,2.60
2019-04-14T06:21:12.183Z,2.70
2019-04-14T06:23:42.381Z,2.70
2019-04-14T06:26:12.585Z,2.80
2019-04-14T06:28:42.858Z,3.00
2019-04-14T06:31:30.797Z,3.20
2019-04-14T06:34:08.820Z,3.20
2019-04-14T06:37:01.805Z,3.30
2019-04-14T06:39:37.992Z,3.50
2019-04-14T06:42:08.184Z,3.50
2019-04-14T06:44:38.409Z,3.60
2019-04-14T06:47:08.582Z,3.60
2019-04-14T06:49:48.454Z,3.80
2019-04-14T06:52:11.294Z,3.80
2019-04-14T06:54:41.560Z,3.90
2019-04-14T06:57:11.767Z,3.90
2019-04-14T06:59:41.976Z,4.00
2019-04-14T07:02:12.214Z,4.00
2019-04-14T07:04:42.403Z,3.90
2019-04-14T07:07:12.497Z,3.90
2019-04-14T07:09:42.564Z,4.00
2019-04-14T07:12:12.754Z,4.20
2019-04-14T07:14:42.893Z,4.30
2019-04-14T07:17:13.010Z,4.30
2019-04-14T07:19:43.169Z,4.50
2019-04-14T07:22:13.289Z,4.70
2019-04-14T07:24:43.485Z,4.90
2019-04-14T07:27:13.644Z,5.10
2019-04-14T07:30:08.872Z,5.10
2019-04-14T07:32:51.677Z,5.00
2019-04-14T07:35:40.778Z,4.90
2019-04-14T07:38:24.336Z,4.90
2019-04-14T07:41:10.127Z,5.00
2019-04-14T07:43:59.232Z,5.00
2019-04-14T07:46:41.496Z,5.10
2019-04-14T07:49:26.158Z,5.10
2019-04-14T07:52:14.069Z,5.00
2019-04-14T07:55:03.304Z,5.00
2019-04-14T07:57:52.647Z,5.20
2019-04-14T08:00:46.152Z,5.30
2019-04-14T08:03:28.166Z,5.20
2019-04-14T08:05:58.325Z,5.30
2019-04-14T08:08:29.167Z,5.40
2019-04-14T08:10:59.409Z,5.40
2019-04-14T08:13:31.074Z,5.60
2019-04-14T08:16:01.192Z,5.70
2019-04-14T08:18:31.290Z,6.00
2019-04-14T08:21:01.355Z,6.30
2019-04-14T08:23:31.471Z,6.30
2019-04-14T08:26:01.784Z,6.50
2019-04-14T08:28:31.926Z,6.90
2019-04-14T08:31:02.011Z,7.20
2019-04-14T08:33:32.235Z,7.10
2019-04-14T08:36:02.316Z,7.00
2019-04-14T08:38:32.570Z,6.90
2019-04-14T08:41:02.710Z,6.90
2019-04-14T08:43:43.025Z,6.90
2019-04-14T08:46:47.407Z,7.20
2019-04-14T08:49:51.997Z,7.40
2019-04-14T08:52:41.264Z,7.50
2019-04-14T08:55:16.912Z,7.70
2019-04-14T08:58:00.985Z,7.60
2019-04-14T09:00:56.393Z,7.60
2019-04-14T09:03:48.332Z,7.40
2019-04-14T09:06:24.953Z,7.40
2019-04-14T09:09:00.265Z,7.60
2019-04-14T09:11:35.203Z,7.70
2019-04-14T09:14:05.412Z,7.90
2019-04-14T09:16:35.696Z,7.90
2019-04-14T09:19:07.886Z,8.00
2019-04-14T09:21:37.532Z,7.70
2019-04-14T09:24:07.641Z,7.70
2019-04-14T09:26:37.806Z,7.90
2019-04-14T09:29:07.957Z,8.00
2019-04-14T09:31:38.335Z,8.10
2019-04-14T09:34:08.551Z,8.00
2019-04-14T09:36:38.774Z,8.10
2019-04-14T09:39:09.011Z,8.40
2019-04-14T09:41:39.419Z,8.80
2019-04-14T09:44:09.620Z,8.90
2019-04-14T09:46:39.965Z,8.90
2019-04-14T09:49:10.213Z,8.90
2019-04-14T09:51:40.385Z,9.10
2019-04-14T09:54:11.721Z,9.30
2019-04-14T09:56:41.958Z,9.30
2019-04-14T09:59:12.136Z,9.10
2019-04-14T10:01:42.395Z,8.90
2019-04-14T10:04:12.633Z,8.90
2019-04-14T10:06:43.616Z,8.90
2019-04-14T10:09:14.018Z,9.10
2019-04-14T10:11:48.915Z,9.40
2019-04-14T10:14:16.017Z,9.40
2019-04-14T10:16:46.195Z,9.30
2019-04-14T10:19:16.542Z,9.40
2019-04-14T10:21:46.744Z,9.30
2019-04-14T10:24:16.813Z,9.50
2019-04-14T10:26:46.954Z,9.70
2019-04-14T10:29:17.126Z,9.80
2019-04-14T10:31:47.300Z,9.70
2019-04-14T10:34:17.594Z,9.70
2019-04-14T10:36:47.881Z,9.60
2019-04-14T10:39:18.221Z,9.60
2019-04-14T10:41:48.470Z,9.70
2019-04-14T10:44:18.821Z,10.00
2019-04-14T10:46:48.936Z,10.10
2019-04-14T10:49:19.134Z,10.00
2019-04-14T10:51:49.550Z,9.70
2019-04-14T10:54:19.800Z,9.60
2019-04-14T10:56:49.975Z,9.70
2019-04-14T10:59:20.232Z,10.00
2019-04-14T11:01:50.466Z,10.20
2019-04-14T11:04:20.725Z,10.50
2019-04-14T11:06:57.067Z,10.70
2019-04-14T11:09:27.319Z,11.00
2019-04-14T11:11:57.471Z,11.20
2019-04-14T11:14:27.608Z,11.30
2019-04-14T11:16:57.965Z,11.60
2019-04-14T11:19:28.166Z,11.80
2019-04-14T11:21:58.242Z,11.90
2019-04-14T11:24:28.383Z,11.70
2019-04-14T11:26:59.008Z,11.60
2019-04-14T11:29:29.335Z,11.70
2019-04-14T11:32:15.133Z,11.90
2019-04-14T11:34:52.903Z,11.90
2019-04-14T11:37:48.468Z,12.10
2019-04-14T11:40:21.309Z,12.30
2019-04-14T11:42:52.725Z,12.60
2019-04-14T11:45:23.070Z,12.70
2019-04-14T11:47:53.419Z,12.70
2019-04-14T11:50:23.652Z,12.70
2019-04-14T11:52:53.829Z,12.90
2019-04-14T11:55:24.180Z,13.00
2019-04-14T11:57:54.292Z,13.20
2019-04-14T12:00:46.514Z,13.50
2019-04-14T12:03:32.553Z,13.50
2019-04-14T12:06:37.177Z,13.40
2019-04-14T12:09:25.820Z,12.90
2019-04-14T12:11:56.150Z,12.30
2019-04-14T12:14:26.613Z,11.90
2019-04-14T12:16:56.820Z,11.60
2019-04-14T12:19:27.002Z,11.40
2019-04-14T12:22:07.739Z,11.60
2019-04-14T12:24:29.184Z,11.90
2019-04-14T12:26:59.489Z,12.50
2019-04-14T12:29:30.471Z,12.90
2019-04-14T12:32:01.980Z,13.40
2019-04-14T12:34:32.125Z,14.00
2019-04-14T12:37:02.658Z,14.50
2019-04-14T12:39:32.737Z,15.00
2019-04-14T12:42:20.397Z,15.30
2019-04-14T12:44:57.258Z,15.10
2019-04-14T12:47:58.683Z,14.70
2019-04-14T12:50:42.215Z,14.40
2019-04-14T12:53:12.435Z,13.90
2019-04-14T12:55:42.783Z,13.40
2019-04-14T12:58:14.255Z,13.10
2019-04-14T13:01:06.502Z,13.00
2019-04-14T13:03:41.734Z,13.10
2019-04-14T13:06:10.931Z,13.30
2019-04-14T13:08:43.870Z,13.70
2019-04-14T13:11:13.969Z,13.90
2019-04-14T13:13:44.074Z,13.90
2019-04-14T13:16:14.156Z,13.90
2019-04-14T13:18:55.627Z,13.70
2019-04-14T13:21:25.880Z,13.50
2019-04-14T13:23:56.195Z,13.60
2019-04-14T13:26:26.514Z,13.60
2019-04-14T13:28:56.709Z,13.50
2019-04-14T13:31:26.869Z,13.20
2019-04-14T13:33:57.648Z,13.00
2019-04-14T13:36:28.108Z,12.90
2019-04-14T13:38:58.272Z,13.00
2019-04-14T13:41:28.802Z,13.20
2019-04-14T13:44:01.649Z,13.30
2019-04-14T13:46:31.924Z,13.40
2019-04-14T13:49:02.078Z,13.60
2019-04-14T13:51:32.380Z,13.80
2019-04-14T13:54:02.546Z,13.90
2019-04-14T13:56:32.619Z,14.20
2019-04-14T13:59:02.813Z,14.60
2019-04-14T14:01:33.265Z,14.80
2019-04-14T14:04:03.591Z,15.10
2019-04-14T14:06:33.839Z,15.30
2019-04-14T14:09:07.484Z,15.20
2019-04-14T14:11:49.848Z,15.10
2019-04-14T14:14:45.252Z,14.60
2019-04-14T14:17:34.343Z,14.10
2019-04-14T14:20:23.243Z,13.80
2019-04-14T14:23:21.760Z,13.70
2019-04-14T14:25:57.089Z,13.70
2019-04-14T14:28:27.204Z,13.50
2019-04-14T14:30:57.270Z,13.50
2019-04-14T14:33:27.975Z,13.70
2019-04-14T14:35:58.164Z,13.90
2019-04-14T14:38:28.245Z,14.10
2019-04-14T14:41:00.483Z,14.00
2019-04-14T14:43:30.554Z,14.00
2019-04-14T14:46:18.320Z,14.00
2019-04-14T14:48:58.326Z,14.00
2019-04-14T14:51:53.316Z,14.10
2019-04-14T14:54:23.782Z,14.40
2019-04-14T14:56:53.938Z,14.60
2019-04-14T14:59:24.093Z,15.00
2019-04-14T15:01:54.266Z,15.10
2019-04-14T15:04:24.524Z,15.00
2019-04-14T15:06:54.737Z,14.60
2019-04-14T15:09:24.867Z,14.40
2019-04-14T15:11:57.319Z,14.10
2019-04-14T15:14:27.530Z,13.80
2019-04-14T15:16:57.805Z,13.70
2019-04-14T15:19:28.049Z,13.70
2019-04-14T15:21:58.178Z,14.00
2019-04-14T15:24:28.293Z,14.40
2019-04-14T15:27:00.110Z,15.20
2019-04-14T15:29:30.411Z,16.10
2019-04-14T15:32:00.591Z,16.70
2019-04-14T15:34:30.758Z,17.10
2019-04-14T15:37:01.011Z,16.90
2019-04-14T15:39:31.239Z,16.30
2019-04-14T15:42:01.492Z,15.90
2019-04-14T15:44:31.624Z,15.40
2019-04-14T15:47:01.813Z,14.80
2019-04-14T15:49:31.990Z,14.60
2019-04-14T15:52:02.106Z,14.60
2019-04-14T15:54:32.333Z,14.60
2019-04-14T15:57:18.990Z,14.70
2019-04-14T16:00:11.232Z,14.60
2019-04-14T16:03:03.289Z,14.40
2019-04-14T16:05:52.625Z,14.80
2019-04-14T16:08:30.675Z,15.50
2019-04-14T16:11:10.626Z,15.80
2019-04-14T16:13:54.157Z,16.10
2019-04-14T16:16:50.168Z,16.10
2019-04-14T16:19:41.195Z,16.30
2019-04-14T16:22:11.390Z,16.80
2019-04-14T16:24:43.857Z,17.40
2019-04-14T16:27:48.093Z,17.70
2019-04-14T16:30:33.429Z,17.40
2019-04-14T16:33:10.306Z,17.20
2019-04-14T16:35:40.583Z,17.30
2019-04-14T16:38:10.754Z,17.00
2019-04-14T16:40:40.837Z,16.70
2019-04-14T16:43:10.966Z,16.30
2019-04-14T16:45:41.121Z,15.80
2019-04-14T16:48:11.226Z,15.80
2019-04-14T16:50:41.305Z,15.70
2019-04-14T16:53:33.458Z,15.50
2019-04-14T16:56:21.548Z,15.30
2019-04-14T16:58:54.789Z,14.90
2019-04-14T17:01:31.439Z,14.50
2019-04-14T17:04:02.016Z,14.10
2019-04-14T17:06:32.151Z,13.70
2019-04-14T17:09:02.492Z,13.40
2019-04-14T17:11:32.679Z,13.20
2019-04-14T17:14:14.733Z,13.10
2019-04-14T17:17:19.007Z,12.90
2019-04-14T17:20:08.107Z,12.80
2019-04-14T17:22:55.801Z,12.60
2019-04-14T17:25:44.971Z,12.40
2019-04-14T17:28:21.259Z,12.10
2019-04-14T17:30:57.338Z,11.90
2019-04-14T17:33:34.713Z,11.70
2019-04-14T17:36:26.914Z,11.60
2019-04-14T17:39:23.837Z,11.40
2019-04-14T17:42:30.934Z,11.30
2019-04-14T17:45:26.020Z,11.10
2019-04-14T17:48:01.135Z,10.90
2019-04-14T17:50:47.948Z,10.80
2019-04-14T17:53:25.463Z,10.70
2019-04-14T17:56:14.565Z,10.60
2019-04-14T17:59:15.941Z,10.40
2019-04-14T18:02:11.031Z,10.30
2019-04-14T18:04:52.420Z,10.10
2019-04-14T18:07:30.712Z,9.80
2019-04-14T18:10:19.877Z,9.70
2019-04-14T18:13:04.303Z,9.60
2019-04-14T18:15:52.261Z,9.50
2019-04-14T18:18:31.967Z,9.30
2019-04-14T18:21:05.279Z,9.20
2019-04-14T18:23:38.576Z,9.10
2019-04-14T18:26:09.311Z,9.00
2019-04-14T18:28:59.657Z,9.00
2019-04-14T18:31:44.758Z,9.00
2019-04-14T18:34:42.759Z,8.90
2019-04-14T18:37:27.405Z,8.80
2019-04-14T18:40:09.867Z,8.70
2019-04-14T18:43:01.029Z,8.50
2019-04-14T18:45:48.111Z,8.50
2019-04-14T18:48:29.002Z,8.40
2019-04-14T18:51:33.513Z,8.30
2019-04-14T18:54:07.785Z,8.20
2019-04-14T18:56:47.172Z,8.20
2019-04-14T18:59:28.285Z,8.10
2019-04-14T19:01:58.408Z,8.00
2019-04-14T19:04:30.331Z,8.00
2019-04-14T19:07:00.549Z,7.90
2019-04-14T19:09:30.679Z,7.90
2019-04-14T19:12:18.359Z,7.80
2019-04-14T19:14:50.111Z,7.70
2019-04-14T19:17:34.646Z,7.70
2019-04-14T19:20:05.448Z,7.70
2019-04-14T19:22:35.573Z,7.60
2019-04-14T19:25:08.361Z,7.60
2019-04-14T19:27:37.826Z,7.60
2019-04-14T19:30:08.447Z,7.60
2019-04-14T19:32:38.495Z,7.50
2019-04-14T19:35:08.880Z,7.50
2019-04-14T19:37:38.987Z,7.60
2019-04-14T19:40:09.349Z,7.70
2019-04-14T19:42:39.496Z,7.60
2019-04-14T19:45:09.642Z,7.60
2019-04-14T19:47:39.785Z,7.60
2019-04-14T19:50:09.924Z,7.60
2019-04-14T19:52:41.834Z,7.60
2019-04-14T19:55:20.379Z,7.60
2019-04-14T19:57:43.836Z,7.60
2019-04-14T20:00:14.399Z,7.70
2019-04-14T20:02:45.096Z,7.70
2019-04-14T20:05:15.279Z,7.70
2019-04-14T20:07:45.418Z,7.80
2019-04-14T20:10:15.710Z,7.80
2019-04-14T20:12:45.861Z,7.70
2019-04-14T20:15:20.350Z,7.70
2019-04-14T20:18:06.920Z,7.70
2019-04-14T20:20:56.914Z,7.70
2019-04-14T20:23:35.171Z,7.70
2019-04-14T20:26:22.888Z,7.70
2019-04-14T20:28:56.325Z,7.70
2019-04-14T20:31:51.283Z,7.60
2019-04-14T20:34:21.817Z,7.60
2019-04-14T20:36:51.912Z,7.50
2019-04-14T20:39:22.150Z,7.50
2019-04-14T20:41:52.247Z,7.50
2019-04-14T20:44:22.583Z,7.40
2019-04-14T20:46:52.812Z,7.40
2019-04-14T20:49:23.006Z,7.30
2019-04-14T20:51:53.148Z,7.20
2019-04-14T20:54:23.353Z,7.20
2019-04-14T20:56:53.418Z,7.10
2019-04-14T20:59:23.500Z,7.00
2019-04-14T21:02:05.354Z,7.00
2019-04-14T21:04:44.017Z,6.90
2019-04-14T21:07:35.994Z,6.80
2019-04-14T21:10:31.718Z,6.80
2019-04-14T21:13:08.530Z,6.80
2019-04-14T21:15:42.758Z,6.70
2019-04-14T21:18:32.060Z,6.60
2019-04-14T21:21:24.241Z,6.50
2019-04-14T21:24:25.417Z,6.50
2019-04-14T21:27:29.525Z,6.40
2019-04-14T21:30:19.018Z,6.30
2019-04-14T21:32:54.812Z,6.20
2019-04-14T21:35:49.964Z,6.10
2019-04-14T21:38:41.943Z,6.10
2019-04-14T21:41:17.014Z,6.10
2019-04-14T21:43:47.081Z,6.00
2019-04-14T21:46:17.250Z,5.90
2019-04-14T21:48:47.384Z,5.80
2019-04-14T21:51:17.734Z,5.80
2019-04-14T21:53:48.393Z,5.80
2019-04-14T21:56:18.861Z,5.80
2019-04-14T21:59:14.242Z,5.70
2019-04-14T22:02:02.557Z,5.60
2019-04-14T22:04:58.028Z,5.60
2019-04-14T22:07:44.330Z,5.50
2019-04-14T22:10:35.322Z,5.50
2019-04-14T22:13:05.507Z,5.40
2019-04-14T22:15:35.768Z,5.30
2019-04-14T22:18:05.931Z,5.30
2019-04-14T22:20:36.125Z,5.20
2019-04-14T22:23:09.598Z,5.20
2019-04-14T22:25:39.658Z,5.20
2019-04-14T22:28:13.162Z,5.10
2019-04-14T22:30:46.717Z,5.10
2019-04-14T22:33:16.938Z,5.00
2019-04-14T22:35:47.064Z,4.90
2019-04-14T22:38:17.293Z,4.90
2019-04-14T22:40:47.464Z,4.90
2019-04-14T22:43:17.627Z,4.80
2019-04-14T22:45:47.841Z,4.70
2019-04-14T22:48:18.260Z,4.70
2019-04-14T22:50:48.365Z,4.70
2019-04-14T22:53:18.458Z,4.60
2019-04-14T22:55:48.612Z,4.50
2019-04-14T22:58:18.871Z,4.50
2019-04-14T23:01:11.026Z,4.50
2019-04-14T23:03:54.098Z,4.50
2019-04-14T23:06:46.613Z,4.40
2019-04-14T23:09:38.488Z,4.40
2019-04-14T23:12:18.051Z,4.30
2019-04-14T23:14:55.908Z,4.30
2019-04-14T23:17:38.581Z,4.20
2019-04-14T23:20:14.902Z,4.20
2019-04-14T23:23:03.988Z,4.20
2019-04-14T23:25:34.837Z,4.10
2019-04-14T23:28:06.613Z,4.00
2019-04-14T23:30:36.955Z,4.00
2019-04-14T23:33:07.123Z,3.90
2019-04-14T23:35:37.307Z,3.90
2019-04-14T23:38:07.361Z,3.90
2019-04-14T23:40:37.598Z,3.90
2019-04-14T23:43:08.081Z,3.80
2019-04-14T23:45:38.132Z,3.70
2019-04-14T23:48:08.202Z,3.70
2019-04-14T23:50:38.488Z,3.70
2019-04-14T23:53:08.538Z,3.60
2019-04-14T23:55:38.876Z,3.60
2019-04-14T23:58:08.958Z,3.50
